createdAt,value
2019-05-26T00:00:24.907Z,99.90
2019-05-26T00:02:54.305Z,99.90
2019-05-26T00:05:23.688Z,99.90
2019-05-26T00:07:53.088Z,99.90
2019-05-26T00:10:22.435Z,99.90
2019-05-26T00:12:51.820Z,99.90
2019-05-26T00:15:21.224Z,99.90
2019-05-26T00:17:50.643Z,99.90
2019-05-26T00:20:20.162Z,99.90
2019-05-26T00:22:49.535Z,99.90
2019-05-26T00:25:19.178Z,99.90
2019-05-26T00:27:48.616Z,99.90
2019-05-26T00:30:18.151Z,99.90
2019-05-26T00:32:47.548Z,99.90
2019-05-26T00:35:16.998Z,99.90
2019-05-26T00:37:49.864Z,99.90
2019-05-26T00:40:17.456Z,99.90
2019-05-26T00:42:46.866Z,99.90
2019-05-26T00:45:16.636Z,99.90
2019-05-26T00:47:46.060Z,99.90
2019-05-26T00:50:17.121Z,99.90
2019-05-26T00:52:46.538Z,99.90
2019-05-26T00:55:16.556Z,99.90
2019-05-26T00:57:45.892Z,99.90
2019-05-26T01:00:17.129Z,99.90
2019-05-26T01:02:46.508Z,99.90
2019-05-26T01:05:16.078Z,99.90
2019-05-26T01:07:45.483Z,99.90
2019-05-26T01:10:15.128Z,99.90
2019-05-26T01:12:44.518Z,99.90
2019-05-26T01:15:13.896Z,99.90
2019-05-26T01:17:43.247Z,99.90
2019-05-26T01:20:12.618Z,99.90
2019-05-26T01:22:41.996Z,99.90
2019-05-26T01:25:11.401Z,99.90
2019-05-26T01:27:40.818Z,99.90
2019-05-26T01:30:10.705Z,99.90
2019-05-26T01:32:40.216Z,99.90
2019-05-26T01:35:10.355Z,99.90
2019-05-26T01:37:40.389Z,99.90
2019-05-26T01:40:10.935Z,99.90
2019-05-26T01:42:40.342Z,99.90
2019-05-26T01:45:09.955Z,99.90
2019-05-26T01:47:39.382Z,99.90
2019-05-26T01:50:08.983Z,99.90
2019-05-26T01:52:38.387Z,99.90
2019-05-26T01:55:07.827Z,99.90
2019-05-26T01:57:37.169Z,99.90
2019-05-26T02:00:07.548Z,99.90
2019-05-26T02:02:56.025Z,99.90
2019-05-26T02:05:25.408Z,99.90
2019-05-26T02:08:13.911Z,99.90
2019-05-26T02:11:02.425Z,99.90
2019-05-26T02:13:50.876Z,99.90
2019-05-26T02:16:39.406Z,99.90
2019-05-26T02:19:27.849Z,99.90
2019-05-26T02:22:16.247Z,99.90
2019-05-26T02:25:05.114Z,99.90
2019-05-26T02:27:34.506Z,99.90
2019-05-26T02:30:04.252Z,99.90
2019-05-26T02:32:33.659Z,99.90
2019-05-26T02:35:22.686Z,99.90
2019-05-26T02:37:52.062Z,99.90
2019-05-26T02:40:40.477Z,99.90
2019-05-26T02:43:28.865Z,99.90
2019-05-26T02:46:17.464Z,99.90
2019-05-26T02:49:05.945Z,99.90
2019-05-26T02:51:54.484Z,99.90
2019-05-26T02:54:42.932Z,99.90
2019-05-26T02:57:31.447Z,99.90
2019-05-26T03:03:46.923Z,99.90
2019-05-26T03:06:27.683Z,99.90
2019-05-26T03:09:22.085Z,99.90
2019-05-26T03:11:51.252Z,99.90
2019-05-26T03:14:32.820Z,99.90
2019-05-26T03:17:14.121Z,99.90
2019-05-26T03:22:37.740Z,99.90
2019-05-26T03:25:19.265Z,99.90
2019-05-26T03:28:00.679Z,99.90
2019-05-26T03:33:24.363Z,99.90
2019-05-26T03:36:10.215Z,99.90
2019-05-26T03:41:30.368Z,99.90
2019-05-26T03:44:11.777Z,99.90
2019-05-26T03:46:53.300Z,99.90
2019-05-26T03:52:16.341Z,99.90
2019-05-26T03:54:57.103Z,99.90
2019-05-26T03:57:38.734Z,99.90
2019-05-26T04:00:20.210Z,99.90
2019-05-26T04:02:49.673Z,99.90
2019-05-26T04:05:19.045Z,99.90
2019-05-26T04:08:07.461Z,99.90
2019-05-26T04:10:55.911Z,99.90
2019-05-26T04:13:44.431Z,99.90
2019-05-26T04:16:32.908Z,99.90
2019-05-26T04:19:21.370Z,99.90
2019-05-26T04:22:09.857Z,99.90
2019-05-26T04:24:58.364Z,99.90
2019-05-26T04:27:46.755Z,99.90
2019-05-26T04:30:35.230Z,99.90
2019-05-26T04:33:23.776Z,99.90
2019-05-26T04:36:12.305Z,99.90
2019-05-26T04:39:00.817Z,99.90
2019-05-26T04:41:49.250Z,99.90
2019-05-26T04:44:37.755Z,99.90
2019-05-26T04:47:26.252Z,99.90
2019-05-26T04:50:14.888Z,99.90
2019-05-26T04:53:06.812Z,99.90
2019-05-26T04:55:53.492Z,99.90
2019-05-26T04:58:41.977Z,99.90
2019-05-26T05:01:30.392Z,99.90
2019-05-26T05:04:18.853Z,99.90
2019-05-26T05:07:07.359Z,99.90
2019-05-26T05:09:55.852Z,99.90
2019-05-26T05:12:44.298Z,99.90
2019-05-26T05:15:32.764Z,99.90
2019-05-26T05:18:21.217Z,99.90
2019-05-26T05:21:09.671Z,99.90
2019-05-26T05:23:58.127Z,99.90
2019-05-26T05:26:46.612Z,99.90
2019-05-26T05:29:16.024Z,99.90
2019-05-26T05:31:45.387Z,99.90
2019-05-26T05:34:33.875Z,99.90
2019-05-26T05:37:25.180Z,99.90
2019-05-26T05:40:12.607Z,99.90
2019-05-26T05:43:01.064Z,99.90
2019-05-26T05:45:49.563Z,99.90
2019-05-26T05:48:38.030Z,99.90
2019-05-26T05:51:26.475Z,99.90
2019-05-26T05:54:14.887Z,99.90
2019-05-26T05:57:03.459Z,99.90
2019-05-26T05:59:52.025Z,99.90
2019-05-26T06:02:40.503Z,99.90
2019-05-26T06:05:22.080Z,99.90
2019-05-26T06:08:02.782Z,99.90
2019-05-26T06:10:44.127Z,99.90
2019-05-26T06:13:13.558Z,99.90
2019-05-26T06:16:02.016Z,99.90
2019-05-26T06:18:50.463Z,99.90
2019-05-26T06:21:19.845Z,99.90
2019-05-26T06:24:08.259Z,99.90
2019-05-26T06:26:56.643Z,99.90
2019-05-26T06:29:57.934Z,99.90
2019-05-26T06:32:35.227Z,99.90
2019-05-26T06:35:44.027Z,99.90
2019-05-26T06:38:32.563Z,99.90
2019-05-26T06:41:33.021Z,99.90
2019-05-26T06:44:11.190Z,99.90
2019-05-26T06:46:59.820Z,99.90
2019-05-26T06:49:48.236Z,99.90
2019-05-26T06:52:36.695Z,99.90
2019-05-26T06:55:25.270Z,99.90
2019-05-26T06:58:13.768Z,99.90
2019-05-26T07:01:02.486Z,99.90
2019-05-26T07:03:51.062Z,99.90
2019-05-26T07:06:32.191Z,99.90
2019-05-26T07:09:13.744Z,99.90
2019-05-26T07:11:59.863Z,99.90
2019-05-26T07:14:37.666Z,99.90
2019-05-26T07:17:20.626Z,99.90
2019-05-26T07:20:01.803Z,99.90
2019-05-26T07:22:43.456Z,99.90
2019-05-26T07:25:25.095Z,99.90
2019-05-26T07:28:06.271Z,99.90
2019-05-26T07:30:46.932Z,99.90
2019-05-26T07:36:10.527Z,99.90
2019-05-26T07:38:51.932Z,99.90
2019-05-26T07:41:33.531Z,99.90
2019-05-26T07:44:14.130Z,99.90
2019-05-26T07:46:54.938Z,99.90
2019-05-26T07:52:18.427Z,99.90
2019-05-26T07:54:59.195Z,99.90
2019-05-26T07:57:40.447Z,99.90
2019-05-26T08:00:10.004Z,99.90
2019-05-26T08:02:39.476Z,99.90
2019-05-26T08:05:08.940Z,99.90
2019-05-26T08:07:38.264Z,99.90
2019-05-26T08:10:08.111Z,99.90
2019-05-26T08:12:37.567Z,99.90
2019-05-26T08:15:07.439Z,99.90
2019-05-26T08:17:36.821Z,99.90
2019-05-26T08:20:06.774Z,99.90
2019-05-26T08:22:36.206Z,99.90
2019-05-26T08:25:06.179Z,99.90
2019-05-26T08:27:35.579Z,99.90
2019-05-26T08:30:05.214Z,99.90
2019-05-26T08:32:34.588Z,99.90
2019-05-26T08:35:03.917Z,99.90
2019-05-26T08:37:33.568Z,99.90
2019-05-26T08:40:18.429Z,99.90
2019-05-26T08:42:52.232Z,99.90
2019-05-26T08:45:23.316Z,99.90
2019-05-26T08:47:52.948Z,99.90
2019-05-26T08:50:23.174Z,99.90
2019-05-26T08:52:52.695Z,99.90
2019-05-26T08:55:22.583Z,99.90
2019-05-26T08:57:52.076Z,99.90
2019-05-26T09:00:21.781Z,99.90
2019-05-26T09:02:51.250Z,99.90
2019-05-26T09:05:21.661Z,99.90
2019-05-26T09:07:51.129Z,99.90
2019-05-26T09:10:20.639Z,99.90
2019-05-26T09:13:00.111Z,99.90
2019-05-26T09:15:21.202Z,99.90
2019-05-26T09:17:50.569Z,99.90
2019-05-26T09:20:20.302Z,99.90
2019-05-26T09:22:49.683Z,99.90
2019-05-26T09:25:19.149Z,99.90
2019-05-26T09:27:48.469Z,99.90
2019-05-26T09:30:18.093Z,99.90
2019-05-26T09:32:47.503Z,99.90
2019-05-26T09:35:17.076Z,99.90
2019-05-26T09:37:46.540Z,99.90
2019-05-26T09:40:16.148Z,99.90
2019-05-26T09:42:45.497Z,99.90
2019-05-26T09:45:15.084Z,99.90
2019-05-26T09:47:44.460Z,99.90
2019-05-26T09:50:14.183Z,99.90
2019-05-26T09:52:43.639Z,99.90
2019-05-26T09:55:15.129Z,99.90
2019-05-26T09:57:44.597Z,99.90
2019-05-26T10:00:16.196Z,99.90
2019-05-26T10:02:45.607Z,99.90
2019-05-26T10:05:15.120Z,99.90
2019-05-26T10:07:44.621Z,98.90
2019-05-26T10:10:15.679Z,98.90
2019-05-26T10:12:45.071Z,98.50
2019-05-26T10:15:15.502Z,96.50
2019-05-26T10:17:44.977Z,97.90
2019-05-26T10:20:14.940Z,99.00
2019-05-26T10:22:44.537Z,98.00
2019-05-26T10:25:14.004Z,98.00
2019-05-26T10:27:43.324Z,96.10
2019-05-26T10:30:13.856Z,98.10
2019-05-26T10:32:43.246Z,95.30
2019-05-26T10:35:12.954Z,94.80
2019-05-26T10:37:42.470Z,95.30
2019-05-26T10:40:12.451Z,94.60
2019-05-26T10:42:41.878Z,94.10
2019-05-26T10:45:11.856Z,94.20
2019-05-26T10:47:41.238Z,92.50
2019-05-26T10:50:11.308Z,91.40
2019-05-26T10:52:40.705Z,89.20
2019-05-26T10:55:10.581Z,90.40
2019-05-26T10:57:40.375Z,88.50
2019-05-26T11:00:10.786Z,88.30
2019-05-26T11:02:40.249Z,87.50
2019-05-26T11:05:09.771Z,90.10
2019-05-26T11:07:39.125Z,91.10
2019-05-26T11:10:09.264Z,92.60
2019-05-26T11:12:38.810Z,91.90
2019-05-26T11:15:09.394Z,91.10
2019-05-26T11:17:38.789Z,90.30
2019-05-26T11:20:08.906Z,90.40
2019-05-26T11:22:38.342Z,90.50
2019-05-26T11:25:08.235Z,86.60
2019-05-26T11:27:37.649Z,85.80
2019-05-26T11:30:08.536Z,90.80
2019-05-26T11:32:37.946Z,90.10
2019-05-26T11:35:07.505Z,85.20
2019-05-26T11:37:36.968Z,87.40
2019-05-26T11:40:06.810Z,81.20
2019-05-26T11:42:36.314Z,83.80
2019-05-26T11:45:06.516Z,85.40
2019-05-26T11:47:35.925Z,81.60
2019-05-26T11:50:05.984Z,77.10
2019-05-26T11:52:35.545Z,77.60
2019-05-26T11:55:05.343Z,78.00
2019-05-26T11:57:36.982Z,74.60
2019-05-26T12:00:06.963Z,73.90
2019-05-26T12:02:36.431Z,72.40
2019-05-26T12:05:06.292Z,75.10
2019-05-26T12:07:35.761Z,79.10
2019-05-26T12:10:06.221Z,78.20
2019-05-26T12:12:35.833Z,81.40
2019-05-26T12:15:06.511Z,81.50
2019-05-26T12:17:35.937Z,79.40
2019-05-26T12:20:05.909Z,81.40
2019-05-26T12:22:35.442Z,83.20
2019-05-26T12:25:05.564Z,78.40
2019-05-26T12:27:34.966Z,76.70
2019-05-26T12:30:04.732Z,76.40
2019-05-26T12:32:34.132Z,75.60
2019-05-26T12:35:03.539Z,74.40
2019-05-26T12:37:32.923Z,71.40
2019-05-26T12:40:02.319Z,69.40
2019-05-26T12:42:31.793Z,68.00
2019-05-26T12:45:01.214Z,69.10
2019-05-26T12:47:30.544Z,65.90
2019-05-26T12:49:59.946Z,65.10
2019-05-26T12:52:29.389Z,68.50
2019-05-26T12:54:58.782Z,71.60
2019-05-26T12:57:28.183Z,72.90
2019-05-26T12:59:57.576Z,74.10
2019-05-26T13:02:27.017Z,72.30
2019-05-26T13:04:56.445Z,70.10
2019-05-26T13:07:25.898Z,68.20
2019-05-26T13:09:55.303Z,68.60
2019-05-26T13:12:24.755Z,65.30
2019-05-26T13:15:05.413Z,62.80
2019-05-26T13:17:25.225Z,66.00
2019-05-26T13:19:54.595Z,64.20
2019-05-26T13:22:24.075Z,64.70
2019-05-26T13:24:53.505Z,70.90
2019-05-26T13:27:22.925Z,75.40
2019-05-26T13:29:52.389Z,71.10
2019-05-26T13:32:21.849Z,69.50
2019-05-26T13:34:51.287Z,66.50
2019-05-26T13:37:20.753Z,65.00
2019-05-26T13:39:50.208Z,67.20
2019-05-26T13:42:19.645Z,72.80
2019-05-26T13:44:49.025Z,75.00
2019-05-26T13:47:26.131Z,80.60
2019-05-26T13:49:49.537Z,85.00
2019-05-26T13:52:18.940Z,86.80
2019-05-26T13:54:48.329Z,89.70
2019-05-26T13:57:17.714Z,88.90
2019-05-26T13:59:47.171Z,86.60
2019-05-26T14:02:16.564Z,87.00
2019-05-26T14:04:46.015Z,86.50
2019-05-26T14:07:15.483Z,89.20
2019-05-26T14:09:44.831Z,86.30
2019-05-26T14:12:14.198Z,87.90
2019-05-26T14:14:43.717Z,85.10
2019-05-26T14:17:14.029Z,85.30
2019-05-26T14:19:46.492Z,88.70
2019-05-26T14:22:15.818Z,86.30
2019-05-26T14:24:54.073Z,86.80
2019-05-26T14:27:16.241Z,87.40
2019-05-26T14:29:45.584Z,85.90
2019-05-26T14:32:14.883Z,84.40
2019-05-26T14:34:45.114Z,86.00
2019-05-26T14:37:14.654Z,87.10
2019-05-26T14:39:44.079Z,86.20
2019-05-26T14:42:13.426Z,87.70
2019-05-26T14:44:42.877Z,88.10
2019-05-26T14:47:12.235Z,88.60
2019-05-26T14:49:41.566Z,87.80
2019-05-26T14:52:10.954Z,89.10
2019-05-26T14:54:40.355Z,89.00
2019-05-26T14:57:09.878Z,91.00
2019-05-26T14:59:39.335Z,90.70
2019-05-26T15:02:08.814Z,90.80
2019-05-26T15:04:38.201Z,90.50
2019-05-26T15:07:07.678Z,89.50
2019-05-26T15:09:37.064Z,89.60
2019-05-26T15:12:06.470Z,90.00
2019-05-26T15:14:36.012Z,90.00
2019-05-26T15:17:05.479Z,90.60
2019-05-26T15:19:34.898Z,91.30
2019-05-26T15:22:04.486Z,91.30
2019-05-26T15:24:33.958Z,91.50
2019-05-26T15:27:03.446Z,91.30
2019-05-26T15:29:32.879Z,91.40
2019-05-26T15:32:03.031Z,92.20
2019-05-26T15:34:32.779Z,92.70
2019-05-26T15:37:02.246Z,92.70
2019-05-26T15:39:31.758Z,91.50
2019-05-26T15:42:01.234Z,91.20
2019-05-26T15:44:30.727Z,91.40
2019-05-26T15:47:00.220Z,91.80
2019-05-26T15:49:29.635Z,91.70
2019-05-26T15:51:59.092Z,92.00
2019-05-26T15:54:28.506Z,91.60
2019-05-26T15:56:57.899Z,92.00
2019-05-26T15:59:27.288Z,92.40
2019-05-26T16:01:56.807Z,92.50
2019-05-26T16:04:26.244Z,92.10
2019-05-26T16:06:55.584Z,92.10
2019-05-26T16:09:24.948Z,92.30
2019-05-26T16:11:54.420Z,92.70
2019-05-26T16:14:23.808Z,93.30
2019-05-26T16:16:53.241Z,93.50
2019-05-26T16:19:22.699Z,93.70
2019-05-26T16:21:52.072Z,93.60
2019-05-26T16:24:21.405Z,94.00
2019-05-26T16:26:50.835Z,94.10
2019-05-26T16:29:20.239Z,94.40
2019-05-26T16:31:49.787Z,94.30
2019-05-26T16:34:19.267Z,94.30
2019-05-26T16:36:48.717Z,93.60
2019-05-26T16:39:18.119Z,93.70
2019-05-26T16:41:47.552Z,93.40
2019-05-26T16:44:17.039Z,92.90
2019-05-26T16:46:56.015Z,92.90
2019-05-26T16:49:17.712Z,92.80
2019-05-26T16:51:47.291Z,92.90
2019-05-26T16:54:16.982Z,93.30
2019-05-26T16:56:46.415Z,93.30
2019-05-26T16:59:15.835Z,92.80
2019-05-26T17:01:45.179Z,92.70
2019-05-26T17:04:14.530Z,92.60
2019-05-26T17:06:43.968Z,92.80
2019-05-26T17:09:13.421Z,92.80
2019-05-26T17:11:42.963Z,93.00
2019-05-26T17:14:12.366Z,93.30
2019-05-26T17:16:41.792Z,93.50
2019-05-26T17:19:11.265Z,94.00
2019-05-26T17:21:40.672Z,93.80
2019-05-26T17:24:10.121Z,94.00
2019-05-26T17:26:39.557Z,94.50
2019-05-26T17:29:09.039Z,94.20
2019-05-26T17:31:38.565Z,94.20
2019-05-26T17:34:08.092Z,94.40
2019-05-26T17:36:37.492Z,94.20
2019-05-26T17:39:08.602Z,94.60
2019-05-26T17:41:38.151Z,94.80
2019-05-26T17:44:07.611Z,95.20
2019-05-26T17:46:37.030Z,95.80
2019-05-26T17:49:06.415Z,95.40
2019-05-26T17:51:35.898Z,95.20
2019-05-26T17:54:05.427Z,95.70
2019-05-26T17:56:34.918Z,95.80
2019-05-26T17:59:04.465Z,96.20
2019-05-26T18:01:33.925Z,96.30
2019-05-26T18:04:03.287Z,96.30
2019-05-26T18:06:32.618Z,96.40
2019-05-26T18:09:01.997Z,96.60
2019-05-26T18:11:31.393Z,96.70
2019-05-26T18:14:00.785Z,97.60
2019-05-26T18:16:30.191Z,97.30
2019-05-26T18:19:04.669Z,97.70
2019-05-26T18:21:34.136Z,98.00
2019-05-26T18:24:03.510Z,98.30
2019-05-26T18:26:32.878Z,98.40
2019-05-26T18:29:02.510Z,98.40
2019-05-26T18:31:32.484Z,98.80
2019-05-26T18:34:01.983Z,98.90
2019-05-26T18:36:31.606Z,99.00
2019-05-26T18:39:01.133Z,99.20
2019-05-26T18:41:30.611Z,99.40
2019-05-26T18:44:00.141Z,99.50
2019-05-26T18:46:29.651Z,99.90
2019-05-26T18:48:59.228Z,99.90
2019-05-26T18:51:29.439Z,99.90
2019-05-26T18:53:59.115Z,99.90
2019-05-26T18:56:28.712Z,99.90
2019-05-26T18:58:58.466Z,99.90
2019-05-26T19:01:29.280Z,99.90
2019-05-26T19:03:58.888Z,99.90
2019-05-26T19:06:28.734Z,99.90
2019-05-26T19:08:58.279Z,99.90
2019-05-26T19:11:27.764Z,99.90
2019-05-26T19:13:57.359Z,99.90
2019-05-26T19:16:26.621Z,99.90
2019-05-26T19:18:56.084Z,99.90
2019-05-26T19:21:25.542Z,99.90
2019-05-26T19:23:54.996Z,99.90
2019-05-26T19:26:24.409Z,99.90
2019-05-26T19:28:53.842Z,99.90
2019-05-26T19:31:24.253Z,99.90
2019-05-26T19:33:53.632Z,99.90
2019-05-26T19:36:23.052Z,99.90
2019-05-26T19:38:53.592Z,99.90
2019-05-26T19:41:23.057Z,99.90
2019-05-26T19:43:52.540Z,99.90
2019-05-26T19:46:21.983Z,99.90
2019-05-26T19:48:51.386Z,99.90
2019-05-26T19:51:20.831Z,99.90
2019-05-26T19:53:50.190Z,99.90
2019-05-26T19:56:19.574Z,99.90
2019-05-26T19:58:48.933Z,99.90
2019-05-26T20:01:18.459Z,99.90
2019-05-26T20:03:47.851Z,99.90
2019-05-26T20:06:17.410Z,99.90
2019-05-26T20:08:46.801Z,99.90
2019-05-26T20:11:16.281Z,99.90
2019-05-26T20:13:45.698Z,99.90
2019-05-26T20:16:15.069Z,99.90
2019-05-26T20:18:44.453Z,99.90
2019-05-26T20:21:13.899Z,99.90
2019-05-26T20:23:43.385Z,99.90
2019-05-26T20:26:12.854Z,99.90
2019-05-26T20:28:42.277Z,99.90
2019-05-26T20:31:11.934Z,99.90
2019-05-26T20:33:41.544Z,99.90
2019-05-26T20:36:10.922Z,99.90
2019-05-26T20:38:40.305Z,99.90
2019-05-26T20:41:09.622Z,99.90
2019-05-26T20:43:39.036Z,99.90
2019-05-26T20:46:08.439Z,99.90
2019-05-26T20:48:37.900Z,99.90
2019-05-26T20:51:07.396Z,99.90
2019-05-26T20:53:40.414Z,99.90
2019-05-26T20:56:07.992Z,99.90
2019-05-26T20:58:37.513Z,99.90
2019-05-26T21:01:06.937Z,99.90
2019-05-26T21:03:36.343Z,99.90
2019-05-26T21:06:05.749Z,99.90
2019-05-26T21:08:35.145Z,99.90
2019-05-26T21:11:04.539Z,99.90
2019-05-26T21:13:33.919Z,99.90
2019-05-26T21:16:03.337Z,99.90
2019-05-26T21:18:32.745Z,99.90
2019-05-26T21:21:02.129Z,99.90
2019-05-26T21:23:31.526Z,99.90
2019-05-26T21:26:00.926Z,99.90
2019-05-26T21:28:30.331Z,99.90
2019-05-26T21:30:59.794Z,99.90
2019-05-26T21:33:29.205Z,99.90
2019-05-26T21:35:58.644Z,99.90
2019-05-26T21:38:28.164Z,99.90
2019-05-26T21:40:57.551Z,99.90
2019-05-26T21:43:27.080Z,99.90
2019-05-26T21:45:56.479Z,99.90
2019-05-26T21:48:25.894Z,99.90
2019-05-26T21:50:55.357Z,99.90
2019-05-26T21:53:24.682Z,99.90
2019-05-26T21:55:54.056Z,99.90
2019-05-26T21:58:23.436Z,99.90
2019-05-26T22:00:53.521Z,99.90
2019-05-26T22:03:23.212Z,99.90
2019-05-26T22:05:52.549Z,99.90
2019-05-26T22:08:21.922Z,99.90
2019-05-26T22:10:51.331Z,99.90
2019-05-26T22:13:20.768Z,99.90
2019-05-26T22:15:50.236Z,99.90
2019-05-26T22:18:19.602Z,99.90
2019-05-26T22:20:48.945Z,99.90
2019-05-26T22:23:18.384Z,99.90
2019-05-26T22:25:47.826Z,99.90
2019-05-26T22:28:17.226Z,99.90
2019-05-26T22:30:46.708Z,99.90
2019-05-26T22:33:16.089Z,99.90
2019-05-26T22:35:45.612Z,99.90
2019-05-26T22:38:14.972Z,99.90
2019-05-26T22:40:44.346Z,99.90
2019-05-26T22:43:13.691Z,99.90
2019-05-26T22:45:43.037Z,99.90
2019-05-26T22:48:12.384Z,99.90
2019-05-26T22:50:43.293Z,99.90
2019-05-26T22:53:12.722Z,99.90
2019-05-26T22:55:42.086Z,99.90
2019-05-26T22:58:11.484Z,99.90
2019-05-26T23:00:42.393Z,99.90
2019-05-26T23:03:11.738Z,99.90
2019-05-26T23:05:41.055Z,99.90
2019-05-26T23:08:10.524Z,99.90
2019-05-26T23:10:39.965Z,99.90
2019-05-26T23:13:09.363Z,99.90
2019-05-26T23:15:38.770Z,99.90
2019-05-26T23:18:08.258Z,99.90
2019-05-26T23:20:37.612Z,99.90
2019-05-26T23:23:06.950Z,99.90
2019-05-26T23:25:36.414Z,99.90
2019-05-26T23:28:05.800Z,99.90
2019-05-26T23:30:35.190Z,99.90
2019-05-26T23:33:04.518Z,99.90
2019-05-26T23:35:33.860Z,99.90
2019-05-26T23:38:03.318Z,99.90
2019-05-26T23:40:32.827Z,99.90
2019-05-26T23:43:02.175Z,99.90
2019-05-26T23:45:31.537Z,99.90
2019-05-26T23:48:00.891Z,99.90
2019-05-26T23:50:30.276Z,99.90
2019-05-26T23:52:59.606Z,99.90
2019-05-26T23:55:29.049Z,99.90
2019-05-26T23:57:58.434Z,99.90
